sensor_id;sensor_type;location;lat;lon;timestamp;temperature;humidity
12477;DHT22;6303;51.504;6.300;2023-06-05T00:01:12;25.90;47.70
12477;DHT22;6303;51.504;6.300;2023-06-05T00:03:39;25.90;47.70
12477;DHT22;6303;51.504;6.300;2023-06-05T00:06:10;25.90;47.70
12477;DHT22;6303;51.504;6.300;2023-06-05T00:08:37;25.90;47.70
12477;DHT22;6303;51.504;6.300;2023-06-05T00:11:04;25.90;47.70
12477;DHT22;6303;51.504;6.300;2023-06-05T00:13:31;25.80;47.70
12477;DHT22;6303;51.504;6.300;2023-06-05T00:15:58;25.80;47.70
12477;DHT22;6303;51.504;6.300;2023-06-05T00:18:28;25.90;47.80
12477;DHT22;6303;51.504;6.300;2023-06-05T00:20:55;25.80;47.80
12477;DHT22;6303;51.504;6.300;2023-06-05T00:23:24;25.80;47.80
12477;DHT22;6303;51.504;6.300;2023-06-05T00:25:51;25.80;47.80
12477;DHT22;6303;51.504;6.300;2023-06-05T00:28:18;25.80;47.90
12477;DHT22;6303;51.504;6.300;2023-06-05T00:30:45;25.80;47.90
12477;DHT22;6303;51.504;6.300;2023-06-05T00:33:12;25.80;47.90
12477;DHT22;6303;51.504;6.300;2023-06-05T00:35:40;25.80;47.90
12477;DHT22;6303;51.504;6.300;2023-06-05T00:38:07;25.80;47.90
12477;DHT22;6303;51.504;6.300;2023-06-05T00:40:35;25.80;48.00
12477;DHT22;6303;51.504;6.300;2023-06-05T00:43:02;25.80;48.00
12477;DHT22;6303;51.504;6.300;2023-06-05T00:45:31;25.70;48.00
12477;DHT22;6303;51.504;6.300;2023-06-05T00:47:58;25.80;48.10
12477;DHT22;6303;51.504;6.300;2023-06-05T00:50:26;25.80;48.50
12477;DHT22;6303;51.504;6.300;2023-06-05T00:52:54;25.70;48.10
12477;DHT22;6303;51.504;6.300;2023-06-05T00:55:21;25.70;48.10
12477;DHT22;6303;51.504;6.300;2023-06-05T00:57:50;25.70;48.10
12477;DHT22;6303;51.504;6.300;2023-06-05T01:00:17;25.70;48.10
12477;DHT22;6303;51.504;6.300;2023-06-05T01:02:44;25.70;48.20
12477;DHT22;6303;51.504;6.300;2023-06-05T01:05:12;25.70;48.20
12477;DHT22;6303;51.504;6.300;2023-06-05T01:07:39;25.70;48.20
12477;DHT22;6303;51.504;6.300;2023-06-05T01:10:08;25.70;48.30
12477;DHT22;6303;51.504;6.300;2023-06-05T01:12:42;25.70;48.30
12477;DHT22;6303;51.504;6.300;2023-06-05T01:15:12;25.70;48.40
12477;DHT22;6303;51.504;6.300;2023-06-05T01:17:39;25.70;48.40
12477;DHT22;6303;51.504;6.300;2023-06-05T01:20:09;25.70;48.40
12477;DHT22;6303;51.504;6.300;2023-06-05T01:22:37;25.70;48.50
12477;DHT22;6303;51.504;6.300;2023-06-05T01:25:07;25.70;48.50
12477;DHT22;6303;51.504;6.300;2023-06-05T01:27:50;25.70;48.50
12477;DHT22;6303;51.504;6.300;2023-06-05T01:30:26;25.60;48.50
12477;DHT22;6303;51.504;6.300;2023-06-05T01:32:57;25.60;48.60
12477;DHT22;6303;51.504;6.300;2023-06-05T01:35:30;25.70;48.70
12477;DHT22;6303;51.504;6.300;2023-06-05T01:38:00;25.60;48.60
12477;DHT22;6303;51.504;6.300;2023-06-05T01:40:30;25.60;48.60
12477;DHT22;6303;51.504;6.300;2023-06-05T01:42:59;25.60;48.60
12477;DHT22;6303;51.504;6.300;2023-06-05T01:45:28;25.60;48.70
12477;DHT22;6303;51.504;6.300;2023-06-05T01:47:55;25.60;48.70
12477;DHT22;6303;51.504;6.300;2023-06-05T01:50:23;25.60;48.80
12477;DHT22;6303;51.504;6.300;2023-06-05T01:52:50;25.60;48.90
12477;DHT22;6303;51.504;6.300;2023-06-05T01:55:19;25.60;48.90
12477;DHT22;6303;51.504;6.300;2023-06-05T01:57:51;25.60;49.00
12477;DHT22;6303;51.504;6.300;2023-06-05T02:00:18;25.50;48.90
12477;DHT22;6303;51.504;6.300;2023-06-05T02:02:47;25.50;48.90
12477;DHT22;6303;51.504;6.300;2023-06-05T02:05:15;25.50;48.90
12477;DHT22;6303;51.504;6.300;2023-06-05T02:07:45;25.50;49.00
12477;DHT22;6303;51.504;6.300;2023-06-05T02:10:13;25.60;49.70
12477;DHT22;6303;51.504;6.300;2023-06-05T02:12:40;25.60;49.10
12477;DHT22;6303;51.504;6.300;2023-06-05T02:15:09;25.60;49.10
12477;DHT22;6303;51.504;6.300;2023-06-05T02:17:38;25.50;49.60
12477;DHT22;6303;51.504;6.300;2023-06-05T02:20:11;25.50;49.10
12477;DHT22;6303;51.504;6.300;2023-06-05T02:22:38;25.50;49.00
12477;DHT22;6303;51.504;6.300;2023-06-05T02:25:08;25.50;49.10
12477;DHT22;6303;51.504;6.300;2023-06-05T02:27:36;25.50;49.10
12477;DHT22;6303;51.504;6.300;2023-06-05T02:30:04;25.50;49.10
12477;DHT22;6303;51.504;6.300;2023-06-05T02:32:34;25.50;49.10
12477;DHT22;6303;51.504;6.300;2023-06-05T02:35:02;25.50;49.10
12477;DHT22;6303;51.504;6.300;2023-06-05T02:37:30;25.50;49.10
12477;DHT22;6303;51.504;6.300;2023-06-05T02:40:04;25.50;49.20
12477;DHT22;6303;51.504;6.300;2023-06-05T02:42:33;25.50;49.30
12477;DHT22;6303;51.504;6.300;2023-06-05T02:45:01;25.50;49.20
12477;DHT22;6303;51.504;6.300;2023-06-05T02:47:28;25.50;49.20
12477;DHT22;6303;51.504;6.300;2023-06-05T02:49:57;25.40;49.10
12477;DHT22;6303;51.504;6.300;2023-06-05T02:52:24;25.40;49.10
12477;DHT22;6303;51.504;6.300;2023-06-05T02:54:52;25.40;49.10
12477;DHT22;6303;51.504;6.300;2023-06-05T02:57:19;25.40;49.10
12477;DHT22;6303;51.504;6.300;2023-06-05T02:59:47;25.40;49.10
12477;DHT22;6303;51.504;6.300;2023-06-05T03:02:17;25.40;49.10
12477;DHT22;6303;51.504;6.300;2023-06-05T03:04:46;25.40;49.20
12477;DHT22;6303;51.504;6.300;2023-06-05T03:07:23;25.40;49.20
12477;DHT22;6303;51.504;6.300;2023-06-05T03:09:51;25.40;49.20
12477;DHT22;6303;51.504;6.300;2023-06-05T03:12:19;25.40;49.20
12477;DHT22;6303;51.504;6.300;2023-06-05T03:14:46;25.40;49.20
12477;DHT22;6303;51.504;6.300;2023-06-05T03:17:13;25.40;49.20
12477;DHT22;6303;51.504;6.300;2023-06-05T03:19:40;25.40;49.20
12477;DHT22;6303;51.504;6.300;2023-06-05T03:22:08;25.40;49.30
12477;DHT22;6303;51.504;6.300;2023-06-05T03:24:38;25.40;49.30
12477;DHT22;6303;51.504;6.300;2023-06-05T03:27:08;25.40;49.30
12477;DHT22;6303;51.504;6.300;2023-06-05T03:29:35;25.30;49.20
12477;DHT22;6303;51.504;6.300;2023-06-05T03:32:02;25.40;49.30
12477;DHT22;6303;51.504;6.300;2023-06-05T03:34:31;25.30;49.30
12477;DHT22;6303;51.504;6.300;2023-06-05T03:37:03;25.30;49.30
12477;DHT22;6303;51.504;6.300;2023-06-05T03:39:30;25.40;49.30
12477;DHT22;6303;51.504;6.300;2023-06-05T03:42:00;25.40;49.60
12477;DHT22;6303;51.504;6.300;2023-06-05T03:44:30;25.30;49.20
12477;DHT22;6303;51.504;6.300;2023-06-05T03:46:57;25.30;49.20
12477;DHT22;6303;51.504;6.300;2023-06-05T03:49:25;25.30;49.20
12477;DHT22;6303;51.504;6.300;2023-06-05T03:51:54;25.30;49.20
12477;DHT22;6303;51.504;6.300;2023-06-05T03:54:26;25.30;49.20
12477;DHT22;6303;51.504;6.300;2023-06-05T03:56:55;25.40;49.20
12477;DHT22;6303;51.504;6.300;2023-06-05T03:59:26;25.30;49.10
12477;DHT22;6303;51.504;6.300;2023-06-05T04:01:58;25.30;49.20
12477;DHT22;6303;51.504;6.300;2023-06-05T04:04:26;25.30;49.20
12477;DHT22;6303;51.504;6.300;2023-06-05T04:06:54;25.30;49.20
12477;DHT22;6303;51.504;6.300;2023-06-05T04:09:22;25.40;49.10
12477;DHT22;6303;51.504;6.300;2023-06-05T04:11:49;25.30;48.90
12477;DHT22;6303;51.504;6.300;2023-06-05T04:14:17;25.40;48.90
12477;DHT22;6303;51.504;6.300;2023-06-05T04:16:46;25.40;49.00
12477;DHT22;6303;51.504;6.300;2023-06-05T04:19:20;25.30;48.90
12477;DHT22;6303;51.504;6.300;2023-06-05T04:21:50;25.40;49.00
12477;DHT22;6303;51.504;6.300;2023-06-05T04:24:17;25.40;49.10
12477;DHT22;6303;51.504;6.300;2023-06-05T04:26:44;25.40;49.10
12477;DHT22;6303;51.504;6.300;2023-06-05T04:29:13;25.40;49.10
12477;DHT22;6303;51.504;6.300;2023-06-05T04:31:42;25.40;49.10
12477;DHT22;6303;51.504;6.300;2023-06-05T04:34:12;25.40;49.00
12477;DHT22;6303;51.504;6.300;2023-06-05T04:36:40;25.40;49.00
12477;DHT22;6303;51.504;6.300;2023-06-05T04:39:08;25.40;49.00
12477;DHT22;6303;51.504;6.300;2023-06-05T04:41:40;25.40;48.90
12477;DHT22;6303;51.504;6.300;2023-06-05T04:44:12;25.40;49.10
12477;DHT22;6303;51.504;6.300;2023-06-05T04:46:42;25.40;48.80
12477;DHT22;6303;51.504;6.300;2023-06-05T04:49:12;25.50;48.80
12477;DHT22;6303;51.504;6.300;2023-06-05T04:51:40;25.50;48.70
12477;DHT22;6303;51.504;6.300;2023-06-05T04:54:08;25.50;48.60
12477;DHT22;6303;51.504;6.300;2023-06-05T04:56:36;25.50;48.60
12477;DHT22;6303;51.504;6.300;2023-06-05T04:59:05;25.50;48.60
12477;DHT22;6303;51.504;6.300;2023-06-05T05:01:32;25.50;48.60
12477;DHT22;6303;51.504;6.300;2023-06-05T05:04:00;25.50;48.40
12477;DHT22;6303;51.504;6.300;2023-06-05T05:06:28;25.60;48.50
12477;DHT22;6303;51.504;6.300;2023-06-05T05:08:56;25.60;48.40
12477;DHT22;6303;51.504;6.300;2023-06-05T05:11:24;25.60;48.40
12477;DHT22;6303;51.504;6.300;2023-06-05T05:13:52;25.60;48.40
12477;DHT22;6303;51.504;6.300;2023-06-05T05:16:19;25.70;48.50
12477;DHT22;6303;51.504;6.300;2023-06-05T05:18:46;25.70;48.80
12477;DHT22;6303;51.504;6.300;2023-06-05T05:21:15;25.70;48.80
12477;DHT22;6303;51.504;6.300;2023-06-05T05:23:44;25.70;48.80
12477;DHT22;6303;51.504;6.300;2023-06-05T05:26:11;25.70;48.70
12477;DHT22;6303;51.504;6.300;2023-06-05T05:28:38;25.70;48.90
12477;DHT22;6303;51.504;6.300;2023-06-05T05:31:05;25.80;49.10
12477;DHT22;6303;51.504;6.300;2023-06-05T05:33:35;25.80;49.30
12477;DHT22;6303;51.504;6.300;2023-06-05T05:36:03;25.80;49.10
12477;DHT22;6303;51.504;6.300;2023-06-05T05:38:30;25.80;48.10
12477;DHT22;6303;51.504;6.300;2023-06-05T05:40:59;25.90;47.70
12477;DHT22;6303;51.504;6.300;2023-06-05T05:43:26;25.90;47.40
12477;DHT22;6303;51.504;6.300;2023-06-05T05:45:53;25.90;47.00
12477;DHT22;6303;51.504;6.300;2023-06-05T05:48:20;25.90;46.80
12477;DHT22;6303;51.504;6.300;2023-06-05T05:50:48;25.90;46.60
12477;DHT22;6303;51.504;6.300;2023-06-05T05:53:15;26.00;46.60
12477;DHT22;6303;51.504;6.300;2023-06-05T05:55:42;26.00;46.40
12477;DHT22;6303;51.504;6.300;2023-06-05T05:58:11;26.00;46.40
12477;DHT22;6303;51.504;6.300;2023-06-05T06:00:38;26.00;46.20
12477;DHT22;6303;51.504;6.300;2023-06-05T06:03:04;26.00;46.20
12477;DHT22;6303;51.504;6.300;2023-06-05T06:05:32;26.00;46.10
12477;DHT22;6303;51.504;6.300;2023-06-05T06:08:02;26.00;45.90
12477;DHT22;6303;51.504;6.300;2023-06-05T06:10:29;26.10;45.90
12477;DHT22;6303;51.504;6.300;2023-06-05T06:12:56;26.10;45.80
12477;DHT22;6303;51.504;6.300;2023-06-05T06:15:25;26.10;45.60
12477;DHT22;6303;51.504;6.300;2023-06-05T06:17:52;26.10;45.60
12477;DHT22;6303;51.504;6.300;2023-06-05T06:20:20;26.10;45.60
12477;DHT22;6303;51.504;6.300;2023-06-05T06:22:48;26.10;45.60
12477;DHT22;6303;51.504;6.300;2023-06-05T06:25:15;26.10;45.50
12477;DHT22;6303;51.504;6.300;2023-06-05T06:27:43;26.10;45.50
12477;DHT22;6303;51.504;6.300;2023-06-05T06:30:14;26.20;45.50
12477;DHT22;6303;51.504;6.300;2023-06-05T06:32:42;26.20;45.50
12477;DHT22;6303;51.504;6.300;2023-06-05T06:35:09;26.20;45.40
12477;DHT22;6303;51.504;6.300;2023-06-05T06:37:39;26.20;45.50
12477;DHT22;6303;51.504;6.300;2023-06-05T06:40:07;26.20;45.50
12477;DHT22;6303;51.504;6.300;2023-06-05T06:42:36;26.20;45.40
12477;DHT22;6303;51.504;6.300;2023-06-05T06:45:16;26.20;45.40
12477;DHT22;6303;51.504;6.300;2023-06-05T06:47:44;26.20;45.40
12477;DHT22;6303;51.504;6.300;2023-06-05T06:50:12;26.20;45.40
12477;DHT22;6303;51.504;6.300;2023-06-05T06:52:40;26.30;45.50
12477;DHT22;6303;51.504;6.300;2023-06-05T06:55:08;26.30;45.40
12477;DHT22;6303;51.504;6.300;2023-06-05T06:57:35;26.30;45.40
12477;DHT22;6303;51.504;6.300;2023-06-05T07:00:02;26.30;45.40
12477;DHT22;6303;51.504;6.300;2023-06-05T07:02:33;26.30;45.50
12477;DHT22;6303;51.504;6.300;2023-06-05T07:05:02;26.30;45.40
12477;DHT22;6303;51.504;6.300;2023-06-05T07:07:29;26.40;45.50
12477;DHT22;6303;51.504;6.300;2023-06-05T07:09:56;26.40;45.50
12477;DHT22;6303;51.504;6.300;2023-06-05T07:12:24;26.40;45.50
12477;DHT22;6303;51.504;6.300;2023-06-05T07:14:51;26.40;45.50
12477;DHT22;6303;51.504;6.300;2023-06-05T07:17:18;26.40;45.40
12477;DHT22;6303;51.504;6.300;2023-06-05T07:19:45;26.40;45.40
12477;DHT22;6303;51.504;6.300;2023-06-05T07:22:13;26.50;46.10
12477;DHT22;6303;51.504;6.300;2023-06-05T07:24:42;26.50;45.40
12477;DHT22;6303;51.504;6.300;2023-06-05T07:27:09;26.50;45.40
12477;DHT22;6303;51.504;6.300;2023-06-05T07:29:36;26.50;45.50
12477;DHT22;6303;51.504;6.300;2023-06-05T07:32:03;26.60;45.60
12477;DHT22;6303;51.504;6.300;2023-06-05T07:34:32;26.60;45.60
12477;DHT22;6303;51.504;6.300;2023-06-05T07:37:00;26.60;45.70
12477;DHT22;6303;51.504;6.300;2023-06-05T07:39:29;26.60;45.70
12477;DHT22;6303;51.504;6.300;2023-06-05T07:41:56;26.60;45.70
12477;DHT22;6303;51.504;6.300;2023-06-05T07:44:23;26.60;45.70
12477;DHT22;6303;51.504;6.300;2023-06-05T07:46:51;26.60;45.70
12477;DHT22;6303;51.504;6.300;2023-06-05T07:49:18;26.70;45.80
12477;DHT22;6303;51.504;6.300;2023-06-05T07:51:46;26.70;45.70
12477;DHT22;6303;51.504;6.300;2023-06-05T07:54:14;26.70;45.70
12477;DHT22;6303;51.504;6.300;2023-06-05T07:56:43;26.70;45.80
12477;DHT22;6303;51.504;6.300;2023-06-05T07:59:14;26.70;45.80
12477;DHT22;6303;51.504;6.300;2023-06-05T08:01:42;26.80;45.80
12477;DHT22;6303;51.504;6.300;2023-06-05T08:04:11;26.80;45.80
12477;DHT22;6303;51.504;6.300;2023-06-05T08:06:38;26.80;45.90
12477;DHT22;6303;51.504;6.300;2023-06-05T08:09:05;26.80;45.90
12477;DHT22;6303;51.504;6.300;2023-06-05T08:11:35;26.80;45.80
12477;DHT22;6303;51.504;6.300;2023-06-05T08:14:05;26.80;45.80
12477;DHT22;6303;51.504;6.300;2023-06-05T08:16:32;26.90;45.80
12477;DHT22;6303;51.504;6.300;2023-06-05T08:18:59;26.90;45.90
12477;DHT22;6303;51.504;6.300;2023-06-05T08:21:27;26.90;45.90
12477;DHT22;6303;51.504;6.300;2023-06-05T08:23:54;26.90;45.90
12477;DHT22;6303;51.504;6.300;2023-06-05T08:26:21;26.90;45.90
12477;DHT22;6303;51.504;6.300;2023-06-05T08:28:49;27.00;45.90
12477;DHT22;6303;51.504;6.300;2023-06-05T08:31:17;27.00;45.80
12477;DHT22;6303;51.504;6.300;2023-06-05T08:33:44;27.10;45.80
12477;DHT22;6303;51.504;6.300;2023-06-05T08:36:11;27.10;45.80
12477;DHT22;6303;51.504;6.300;2023-06-05T08:38:38;27.10;45.80
12477;DHT22;6303;51.504;6.300;2023-06-05T08:41:06;27.20;45.80
12477;DHT22;6303;51.504;6.300;2023-06-05T08:43:36;27.20;45.70
12477;DHT22;6303;51.504;6.300;2023-06-05T08:46:05;27.20;45.70
12477;DHT22;6303;51.504;6.300;2023-06-05T08:48:37;27.20;45.60
12477;DHT22;6303;51.504;6.300;2023-06-05T08:51:07;27.30;45.70
12477;DHT22;6303;51.504;6.300;2023-06-05T08:53:38;27.30;45.60
12477;DHT22;6303;51.504;6.300;2023-06-05T08:56:06;27.40;45.50
12477;DHT22;6303;51.504;6.300;2023-06-05T08:58:33;27.30;45.40
12477;DHT22;6303;51.504;6.300;2023-06-05T09:01:01;27.40;45.50
12477;DHT22;6303;51.504;6.300;2023-06-05T09:03:28;27.40;45.50
12477;DHT22;6303;51.504;6.300;2023-06-05T09:05:56;27.40;45.50
12477;DHT22;6303;51.504;6.300;2023-06-05T09:08:30;27.40;45.40
12477;DHT22;6303;51.504;6.300;2023-06-05T09:11:22;27.40;45.40
12477;DHT22;6303;51.504;6.300;2023-06-05T09:13:51;27.50;45.50
12477;DHT22;6303;51.504;6.300;2023-06-05T09:16:22;27.50;45.50
12477;DHT22;6303;51.504;6.300;2023-06-05T09:18:53;27.50;45.60
12477;DHT22;6303;51.504;6.300;2023-06-05T09:21:22;27.50;45.50
12477;DHT22;6303;51.504;6.300;2023-06-05T09:24:16;27.50;45.50
12477;DHT22;6303;51.504;6.300;2023-06-05T09:26:55;27.50;45.40
12477;DHT22;6303;51.504;6.300;2023-06-05T09:29:24;27.60;45.40
12477;DHT22;6303;51.504;6.300;2023-06-05T09:31:53;27.60;45.30
12477;DHT22;6303;51.504;6.300;2023-06-05T09:34:25;27.60;45.30
12477;DHT22;6303;51.504;6.300;2023-06-05T09:36:55;27.60;45.30
12477;DHT22;6303;51.504;6.300;2023-06-05T09:39:23;27.60;45.30
12477;DHT22;6303;51.504;6.300;2023-06-05T09:41:52;27.60;45.30
12477;DHT22;6303;51.504;6.300;2023-06-05T09:44:19;27.70;45.20
12477;DHT22;6303;51.504;6.300;2023-06-05T09:46:54;27.60;45.20
12477;DHT22;6303;51.504;6.300;2023-06-05T09:49:24;27.60;45.20
12477;DHT22;6303;51.504;6.300;2023-06-05T09:51:51;27.60;45.10
12477;DHT22;6303;51.504;6.300;2023-06-05T09:54:20;27.70;45.20
12477;DHT22;6303;51.504;6.300;2023-06-05T09:56:49;27.70;45.10
12477;DHT22;6303;51.504;6.300;2023-06-05T09:59:20;27.70;45.20
12477;DHT22;6303;51.504;6.300;2023-06-05T10:01:50;27.70;45.20
12477;DHT22;6303;51.504;6.300;2023-06-05T10:04:22;27.70;45.20
12477;DHT22;6303;51.504;6.300;2023-06-05T10:06:50;27.70;45.30
12477;DHT22;6303;51.504;6.300;2023-06-05T10:09:19;27.70;45.30
12477;DHT22;6303;51.504;6.300;2023-06-05T10:11:48;27.70;45.30
12477;DHT22;6303;51.504;6.300;2023-06-05T10:14:16;27.80;45.30
12477;DHT22;6303;51.504;6.300;2023-06-05T10:16:43;27.80;45.30
12477;DHT22;6303;51.504;6.300;2023-06-05T10:19:11;27.80;45.30
12477;DHT22;6303;51.504;6.300;2023-06-05T10:21:41;27.80;45.30
12477;DHT22;6303;51.504;6.300;2023-06-05T10:24:11;27.80;45.30
12477;DHT22;6303;51.504;6.300;2023-06-05T10:27:12;27.80;45.30
12477;DHT22;6303;51.504;6.300;2023-06-05T10:30:07;27.80;45.30
12477;DHT22;6303;51.504;6.300;2023-06-05T10:32:49;27.90;45.30
12477;DHT22;6303;51.504;6.300;2023-06-05T10:35:29;27.80;45.30
12477;DHT22;6303;51.504;6.300;2023-06-05T10:38:11;27.90;45.40
12477;DHT22;6303;51.504;6.300;2023-06-05T10:40:43;27.80;45.30
12477;DHT22;6303;51.504;6.300;2023-06-05T10:43:29;27.90;45.40
12477;DHT22;6303;51.504;6.300;2023-06-05T10:45:58;27.90;45.40
12477;DHT22;6303;51.504;6.300;2023-06-05T10:51:39;27.90;45.30
12477;DHT22;6303;51.504;6.300;2023-06-05T10:54:09;27.90;45.30
12477;DHT22;6303;51.504;6.300;2023-06-05T10:56:59;27.90;45.40
12477;DHT22;6303;51.504;6.300;2023-06-05T10:59:29;27.90;45.30
12477;DHT22;6303;51.504;6.300;2023-06-05T11:02:21;27.90;45.30
12477;DHT22;6303;51.504;6.300;2023-06-05T11:05:08;27.90;45.20
12477;DHT22;6303;51.504;6.300;2023-06-05T11:07:37;27.90;45.10
12477;DHT22;6303;51.504;6.300;2023-06-05T11:10:10;28.00;45.00
12477;DHT22;6303;51.504;6.300;2023-06-05T11:12:57;27.90;45.60
12477;DHT22;6303;51.504;6.300;2023-06-05T11:15:44;27.90;45.00
12477;DHT22;6303;51.504;6.300;2023-06-05T11:18:30;27.90;44.90
12477;DHT22;6303;51.504;6.300;2023-06-05T11:20:59;27.90;44.90
12477;DHT22;6303;51.504;6.300;2023-06-05T11:23:26;28.00;45.00
12477;DHT22;6303;51.504;6.300;2023-06-05T11:25:56;27.90;45.00
12477;DHT22;6303;51.504;6.300;2023-06-05T11:28:41;28.00;45.00
12477;DHT22;6303;51.504;6.300;2023-06-05T11:31:10;27.90;45.00
12477;DHT22;6303;51.504;6.300;2023-06-05T11:33:38;28.00;45.00
12477;DHT22;6303;51.504;6.300;2023-06-05T11:36:06;27.90;44.90
12477;DHT22;6303;51.504;6.300;2023-06-05T11:38:37;27.90;44.90
12477;DHT22;6303;51.504;6.300;2023-06-05T11:41:08;27.90;44.90
12477;DHT22;6303;51.504;6.300;2023-06-05T11:43:42;27.90;45.00
12477;DHT22;6303;51.504;6.300;2023-06-05T11:46:11;27.90;44.90
12477;DHT22;6303;51.504;6.300;2023-06-05T11:48:45;27.90;44.80
12477;DHT22;6303;51.504;6.300;2023-06-05T11:51:12;27.90;44.60
12477;DHT22;6303;51.504;6.300;2023-06-05T11:53:45;27.90;44.80
12477;DHT22;6303;51.504;6.300;2023-06-05T11:56:14;27.90;44.80
12477;DHT22;6303;51.504;6.300;2023-06-05T11:58:42;27.90;44.70
12477;DHT22;6303;51.504;6.300;2023-06-05T12:01:13;27.90;44.60
12477;DHT22;6303;51.504;6.300;2023-06-05T12:03:44;27.80;44.50
12477;DHT22;6303;51.504;6.300;2023-06-05T12:06:11;27.90;44.50
12477;DHT22;6303;51.504;6.300;2023-06-05T12:08:40;27.80;44.40
12477;DHT22;6303;51.504;6.300;2023-06-05T12:11:23;27.80;44.40
12477;DHT22;6303;51.504;6.300;2023-06-05T12:13:52;27.80;44.50
12477;DHT22;6303;51.504;6.300;2023-06-05T12:16:30;27.80;44.60
12477;DHT22;6303;51.504;6.300;2023-06-05T12:18:57;27.80;44.60
12477;DHT22;6303;51.504;6.300;2023-06-05T12:21:26;27.80;44.50
12477;DHT22;6303;51.504;6.300;2023-06-05T12:24:01;27.70;44.40
12477;DHT22;6303;51.504;6.300;2023-06-05T12:26:28;27.70;44.40
12477;DHT22;6303;51.504;6.300;2023-06-05T12:29:02;27.70;44.40
12477;DHT22;6303;51.504;6.300;2023-06-05T12:31:36;27.70;44.60
12477;DHT22;6303;51.504;6.300;2023-06-05T12:34:05;27.60;44.50
12477;DHT22;6303;51.504;6.300;2023-06-05T12:36:38;27.80;44.60
12477;DHT22;6303;51.504;6.300;2023-06-05T12:39:06;27.70;44.60
12477;DHT22;6303;51.504;6.300;2023-06-05T12:41:34;27.60;44.60
12477;DHT22;6303;51.504;6.300;2023-06-05T12:44:02;27.60;44.60
12477;DHT22;6303;51.504;6.300;2023-06-05T12:46:30;27.60;44.80
12477;DHT22;6303;51.504;6.300;2023-06-05T12:48:59;27.60;44.80
12477;DHT22;6303;51.504;6.300;2023-06-05T12:51:26;27.60;44.50
12477;DHT22;6303;51.504;6.300;2023-06-05T12:53:54;27.60;44.40
12477;DHT22;6303;51.504;6.300;2023-06-05T12:56:21;27.50;44.10
12477;DHT22;6303;51.504;6.300;2023-06-05T12:58:51;27.50;44.10
12477;DHT22;6303;51.504;6.300;2023-06-05T13:01:20;27.50;44.10
12477;DHT22;6303;51.504;6.300;2023-06-05T13:03:47;27.60;44.30
12477;DHT22;6303;51.504;6.300;2023-06-05T13:06:15;27.50;44.10
12477;DHT22;6303;51.504;6.300;2023-06-05T13:08:43;27.50;44.20
12477;DHT22;6303;51.504;6.300;2023-06-05T13:11:11;27.50;44.30
12477;DHT22;6303;51.504;6.300;2023-06-05T13:13:38;27.50;44.30
12477;DHT22;6303;51.504;6.300;2023-06-05T13:16:06;27.50;44.20
12477;DHT22;6303;51.504;6.300;2023-06-05T13:18:34;27.50;44.30
12477;DHT22;6303;51.504;6.300;2023-06-05T13:21:02;27.50;44.30
12477;DHT22;6303;51.504;6.300;2023-06-05T13:23:30;27.50;44.30
12477;DHT22;6303;51.504;6.300;2023-06-05T13:25:58;27.50;44.40
12477;DHT22;6303;51.504;6.300;2023-06-05T13:28:25;27.50;44.40
12477;DHT22;6303;51.504;6.300;2023-06-05T13:30:52;27.50;44.50
12477;DHT22;6303;51.504;6.300;2023-06-05T13:33:20;27.50;44.60
12477;DHT22;6303;51.504;6.300;2023-06-05T13:35:48;27.40;44.60
12477;DHT22;6303;51.504;6.300;2023-06-05T13:38:15;27.50;44.60
12477;DHT22;6303;51.504;6.300;2023-06-05T13:40:44;27.50;44.80
12477;DHT22;6303;51.504;6.300;2023-06-05T13:43:14;27.40;44.70
12477;DHT22;6303;51.504;6.300;2023-06-05T13:45:41;27.40;44.70
12477;DHT22;6303;51.504;6.300;2023-06-05T13:48:08;27.40;44.60
12477;DHT22;6303;51.504;6.300;2023-06-05T13:50:35;27.40;44.60
12477;DHT22;6303;51.504;6.300;2023-06-05T13:53:02;27.40;44.60
12477;DHT22;6303;51.504;6.300;2023-06-05T13:55:29;27.40;44.40
12477;DHT22;6303;51.504;6.300;2023-06-05T13:57:57;27.40;44.40
12477;DHT22;6303;51.504;6.300;2023-06-05T14:00:28;27.40;44.40
12477;DHT22;6303;51.504;6.300;2023-06-05T14:02:56;27.40;44.50
12477;DHT22;6303;51.504;6.300;2023-06-05T14:05:23;27.40;44.60
12477;DHT22;6303;51.504;6.300;2023-06-05T14:07:52;27.40;44.60
12477;DHT22;6303;51.504;6.300;2023-06-05T14:10:22;27.40;44.70
12477;DHT22;6303;51.504;6.300;2023-06-05T14:12:50;27.40;44.60
12477;DHT22;6303;51.504;6.300;2023-06-05T14:15:19;27.40;44.70
12477;DHT22;6303;51.504;6.300;2023-06-05T14:17:48;27.40;44.90
12477;DHT22;6303;51.504;6.300;2023-06-05T14:20:15;27.40;45.00
12477;DHT22;6303;51.504;6.300;2023-06-05T14:22:42;27.40;44.70
12477;DHT22;6303;51.504;6.300;2023-06-05T14:25:09;27.40;44.50
12477;DHT22;6303;51.504;6.300;2023-06-05T14:27:37;27.40;44.40
12477;DHT22;6303;51.504;6.300;2023-06-05T14:30:05;27.40;44.60
12477;DHT22;6303;51.504;6.300;2023-06-05T14:32:34;27.40;44.70
12477;DHT22;6303;51.504;6.300;2023-06-05T14:35:01;27.40;44.60
12477;DHT22;6303;51.504;6.300;2023-06-05T14:37:28;27.40;44.60
12477;DHT22;6303;51.504;6.300;2023-06-05T14:39:55;27.40;44.50
12477;DHT22;6303;51.504;6.300;2023-06-05T14:42:22;27.40;44.50
12477;DHT22;6303;51.504;6.300;2023-06-05T14:44:50;27.40;44.70
12477;DHT22;6303;51.504;6.300;2023-06-05T14:47:17;27.40;44.70
12477;DHT22;6303;51.504;6.300;2023-06-05T14:49:45;27.40;44.60
12477;DHT22;6303;51.504;6.300;2023-06-05T14:52:12;27.40;44.70
12477;DHT22;6303;51.504;6.300;2023-06-05T14:54:39;27.40;44.80
12477;DHT22;6303;51.504;6.300;2023-06-05T14:57:06;27.40;44.60
12477;DHT22;6303;51.504;6.300;2023-06-05T14:59:34;27.40;44.40
12477;DHT22;6303;51.504;6.300;2023-06-05T15:02:01;27.40;44.40
12477;DHT22;6303;51.504;6.300;2023-06-05T15:04:28;27.40;44.40
12477;DHT22;6303;51.504;6.300;2023-06-05T15:06:57;27.40;44.30
12477;DHT22;6303;51.504;6.300;2023-06-05T15:09:25;27.40;44.40
12477;DHT22;6303;51.504;6.300;2023-06-05T15:11:52;27.40;44.40
12477;DHT22;6303;51.504;6.300;2023-06-05T15:14:21;27.40;44.50
12477;DHT22;6303;51.504;6.300;2023-06-05T15:16:49;27.40;44.40
12477;DHT22;6303;51.504;6.300;2023-06-05T15:19:16;27.40;44.30
12477;DHT22;6303;51.504;6.300;2023-06-05T15:21:44;27.40;44.30
12477;DHT22;6303;51.504;6.300;2023-06-05T15:24:12;27.40;44.20
12477;DHT22;6303;51.504;6.300;2023-06-05T15:26:39;27.40;44.00
12477;DHT22;6303;51.504;6.300;2023-06-05T15:29:06;27.40;43.80
12477;DHT22;6303;51.504;6.300;2023-06-05T15:31:33;27.40;43.80
12477;DHT22;6303;51.504;6.300;2023-06-05T15:34:00;27.40;43.80
12477;DHT22;6303;51.504;6.300;2023-06-05T15:36:27;26.70;43.30
12477;DHT22;6303;51.504;6.300;2023-06-05T15:38:54;27.40;43.70
12477;DHT22;6303;51.504;6.300;2023-06-05T15:41:23;27.40;43.80
12477;DHT22;6303;51.504;6.300;2023-06-05T15:43:51;27.40;44.00
12477;DHT22;6303;51.504;6.300;2023-06-05T15:46:18;27.40;43.80
12477;DHT22;6303;51.504;6.300;2023-06-05T15:48:45;27.40;43.90
12477;DHT22;6303;51.504;6.300;2023-06-05T15:51:12;27.40;44.00
12477;DHT22;6303;51.504;6.300;2023-06-05T15:53:39;27.40;44.00
12477;DHT22;6303;51.504;6.300;2023-06-05T15:56:06;27.40;44.20
12477;DHT22;6303;51.504;6.300;2023-06-05T15:58:35;27.40;44.10
12477;DHT22;6303;51.504;6.300;2023-06-05T16:01:02;27.40;44.00